Terminal Aerodrome Forecast
Issued by NWS

Home | Current Version | Previous Version | Text Only | Print | Product List | Glossary On
Versions: 1 2 3 4 5 6 7 8 9 10 11 12 13 14 15 16 17 18 19 20 21 22 23 24
000
FTUS43 KICT 251739
TAFCNU
TAF
KCNU 251739Z 2518/2618 33005KT P6SM SCT150
     FM252200 36006KT P6SM VCTS BKN080CB
      TEMPO 2523/2602 6SM -TSRA OVC070CB
     FM260300 07004KT P6SM BKN080
     FM261200 10004KT P6SM BKN070=

USA.gov is the U.S. government's official web portal to all federal, state and local government web resources and services.